Time;durP1;ratioP1;P1;durP2;ratioP2;P2;SDS_P1;SDS_P2;PMS_P1;PMS_P2;Temp;Humidity;BMP_temperature;BMP_pressure;BME280_temperature;BME280_humidity;BME280_pressure;Samples;Min_cycle;Max_cycle;Signal;HPM_P1;HPM_P2
2022/08/25 00:01:26;;;;;;;6.00;5.00;;;;;;;21.03;82.33;102143.72;4910051;29;20657;-74
2022/08/25 00:03:52;;;;;;;8.87;5.37;;;;;;;20.96;83.22;102134.19;4896854;29;20256;-74
2022/08/25 00:06:18;;;;;;;10.20;5.70;;;;;;;20.98;82.51;102144.59;4918209;29;20665;-74
2022/08/25 00:08:44;;;;;;;6.27;4.67;;;;;;;20.97;83.01;102137.66;4896252;29;20198;-75
2022/08/25 00:11:18;;;;;;;5.70;5.00;;;;;;;20.95;82.34;102140.25;4917261;29;20186;-74
2022/08/25 00:13:46;;;;;;;9.87;5.30;;;;;;;20.93;82.87;102141.13;4917164;29;20194;-74
2022/08/25 00:16:15;;;;;;;10.23;5.27;;;;;;;20.91;83.51;102141.13;4921403;29;20681;-74
2022/08/25 00:18:44;;;;;;;8.13;5.27;;;;;;;20.90;83.86;102133.31;4916411;29;20637;-73
2022/08/25 00:21:12;;;;;;;7.10;4.87;;;;;;;20.88;83.51;102133.31;4915953;29;20194;-74
2022/08/25 00:23:37;;;;;;;7.57;5.80;;;;;;;20.88;83.87;102132.44;4899496;29;20205;-74
2022/08/25 00:26:03;;;;;;;7.60;5.00;;;;;;;20.83;84.40;102139.41;4896697;29;20189;-74
2022/08/25 00:28:29;;;;;;;6.57;5.17;;;;;;;20.80;84.46;102129.84;4921988;29;20200;-75
2022/08/25 00:30:57;;;;;;;7.93;5.50;;;;;;;20.79;84.95;102138.53;4920467;29;20198;-74
2022/08/25 00:33:23;;;;;;;10.00;5.50;;;;;;;20.80;84.24;102128.97;4900217;29;20186;-74
2022/08/25 00:35:49;;;;;;;7.93;5.50;;;;;;;20.77;84.79;102136.81;4917384;29;20313;-73
2022/08/25 00:38:15;;;;;;;10.67;5.60;;;;;;;20.73;84.99;102135.06;4915954;29;20681;-74
2022/08/25 00:40:41;;;;;;;7.97;5.47;;;;;;;20.70;84.82;102135.94;4909584;29;20794;-74
2022/08/25 00:43:09;;;;;;;7.47;5.90;;;;;;;20.66;85.12;102135.94;4904794;29;20285;-74
2022/08/25 00:45:35;;;;;;;10.07;5.53;;;;;;;20.68;85.38;102134.22;4916423;29;20207;-74
2022/08/25 00:48:01;;;;;;;6.37;5.30;;;;;;;20.63;85.64;102139.41;4900072;29;20209;-74
2022/08/25 00:50:29;;;;;;;8.70;5.47;;;;;;;20.65;85.71;102134.22;4906812;29;20194;-74
2022/08/25 00:52:58;;;;;;;8.20;5.57;;;;;;;20.63;85.75;102133.34;4921022;29;20217;-74
2022/08/25 00:55:28;;;;;;;8.20;6.17;;;;;;;20.62;85.64;102136.81;4921052;29;20221;-74
2022/08/25 00:58:05;;;;;;;6.93;5.63;;;;;;;20.59;85.82;102137.66;4910882;29;20198;-74
2022/08/25 01:00:39;;;;;;;8.90;6.03;;;;;;;20.60;85.25;102136.78;4912472;29;20282;-74
2022/08/25 01:03:05;;;;;;;8.23;5.80;;;;;;;20.59;85.31;102144.63;4919828;29;20285;-74
2022/08/25 01:05:32;;;;;;;7.70;5.97;;;;;;;20.54;85.84;102136.81;4922934;29;20226;-74
2022/08/25 01:08:01;;;;;;;7.60;5.77;;;;;;;20.52;85.56;102142.88;4915025;29;20657;-74
2022/08/25 01:10:29;;;;;;;9.70;5.83;;;;;;;20.50;85.77;102140.28;4919393;29;20197;-74
2022/08/25 01:13:00;;;;;;;8.43;5.67;;;;;;;20.42;85.91;102134.22;4920259;29;20190;-74
2022/08/25 01:15:27;;;;;;;7.93;5.27;;;;;;;20.38;86.45;102145.50;4915758;29;20621;-73
2022/08/25 01:17:55;;;;;;;8.70;5.70;;;;;;;20.41;85.94;102134.22;4923710;29;20293;-74
2022/08/25 01:20:24;;;;;;;6.77;5.70;;;;;;;20.38;85.89;102136.81;4918945;29;20290;-73
2022/08/25 01:22:50;;;;;;;8.83;5.50;;;;;;;20.33;86.63;102130.75;4901792;29;20226;-73
2022/08/25 01:25:39;;;;;;;10.40;5.60;;;;;;;20.32;86.64;102135.06;4918498;29;20282;-73
2022/08/25 01:28:05;;;;;;;9.93;6.67;;;;;;;20.27;86.97;102131.59;4917504;29;20197;-73
2022/08/25 01:30:30;;;;;;;9.13;6.00;;;;;;;20.26;87.37;102129.03;4921791;29;20189;-73
2022/08/25 01:32:56;;;;;;;8.63;5.83;;;;;;;20.25;87.33;102129.88;4924149;29;20194;-73
2022/08/25 01:35:22;;;;;;;9.63;5.63;;;;;;;20.21;87.52;102131.59;4920619;29;20218;-73
2022/08/25 01:37:48;;;;;;;8.10;5.87;;;;;;;20.21;87.26;102130.72;4920172;29;20654;-73
2022/08/25 01:40:14;;;;;;;8.17;5.73;;;;;;;20.19;87.59;102133.34;4917975;29;20201;-73
2022/08/25 01:43:10;;;;;;;8.87;6.37;;;;;;;20.17;87.70;102137.66;4922442;29;20594;-73
2022/08/25 01:45:40;;;;;;;8.30;5.70;;;;;;;20.14;87.69;102132.50;4905583;29;20221;-73
2022/08/25 01:48:07;;;;;;;7.53;5.63;;;;;;;20.13;87.43;102132.47;4918372;29;20190;-73
2022/08/25 01:50:33;;;;;;;6.10;5.40;;;;;;;20.11;87.95;102134.19;4909118;29;20198;-73
2022/08/25 01:53:04;;;;;;;8.40;6.00;;;;;;;20.06;88.16;102135.88;4918474;29;20193;-73
2022/08/25 01:55:50;;;;;;;8.20;5.83;;;;;;;20.00;88.34;102134.13;4906231;29;20252;-73
2022/08/25 01:58:17;;;;;;;8.80;5.73;;;;;;;20.01;88.17;102130.69;4920919;29;20297;-73
2022/08/25 02:00:47;;;;;;;8.83;6.13;;;;;;;20.01;88.33;102135.00;4898838;29;20226;-73
2022/08/25 02:03:13;;;;;;;9.63;5.80;;;;;;;19.99;88.20;102134.16;4914931;29;20229;-73
2022/08/25 02:05:38;;;;;;;9.03;6.33;;;;;;;19.96;88.64;102128.94;4899539;29;20589;-73
2022/08/25 02:08:04;;;;;;;8.80;6.50;;;;;;;19.95;88.76;102138.47;4920861;29;20204;-74
2022/08/25 02:10:31;;;;;;;10.67;6.50;;;;;;;19.94;88.93;102144.53;4922767;29;20189;-72
2022/08/25 02:12:57;;;;;;;9.10;5.97;;;;;;;19.92;89.22;102140.19;4921001;29;20276;-74
2022/08/25 02:15:22;;;;;;;7.17;6.33;;;;;;;19.88;89.05;102141.94;4918533;29;20773;-73
2022/08/25 02:17:48;;;;;;;7.73;6.00;;;;;;;19.88;89.07;102139.34;4919161;29;20201;-73
2022/08/25 02:20:13;;;;;;;10.67;5.70;;;;;;;19.89;88.91;102145.38;4917404;29;20270;-74
2022/08/25 02:22:39;;;;;;;7.33;5.90;;;;;;;19.85;88.97;102144.50;4919951;29;20820;-73
2022/08/25 02:25:05;;;;;;;9.33;6.27;;;;;;;19.82;89.16;102141.03;4920150;29;20581;-74
2022/08/25 02:27:30;;;;;;;10.03;6.03;;;;;;;19.79;89.27;102146.22;4917293;29;20209;-74
2022/08/25 02:29:56;;;;;;;6.70;6.00;;;;;;;19.78;89.48;102144.50;4919115;29;20182;-73
2022/08/25 02:32:21;;;;;;;9.57;6.10;;;;;;;19.76;89.43;102149.69;4921377;29;20736;-73
2022/08/25 02:34:47;;;;;;;6.73;6.00;;;;;;;19.73;89.48;102146.22;4923714;29;20565;-73
2022/08/25 02:37:13;;;;;;;11.23;6.00;;;;;;;19.69;89.87;102139.28;4915226;29;20224;-73
2022/08/25 02:39:38;;;;;;;9.07;6.10;;;;;;;19.70;89.71;102139.28;4917587;29;20286;-73
2022/08/25 02:42:04;;;;;;;6.87;6.27;;;;;;;19.70;89.55;102136.69;4918632;29;20190;-73
2022/08/25 02:44:30;;;;;;;8.73;6.53;;;;;;;19.66;89.80;102137.53;4915936;29;20226;-73
2022/08/25 02:46:56;;;;;;;8.83;6.50;;;;;;;19.64;89.72;102139.28;4922869;29;20198;-73
2022/08/25 02:49:22;;;;;;;7.27;6.20;;;;;;;19.60;89.88;102136.63;4921403;29;20208;-73
2022/08/25 02:51:47;;;;;;;9.97;6.13;;;;;;;19.58;89.92;102134.03;4905941;29;20198;-73
2022/08/25 02:54:13;;;;;;;6.43;5.73;;;;;;;19.52;90.04;102131.41;4917178;29;20202;-73
2022/08/25 02:56:40;;;;;;;9.07;6.03;;;;;;;19.55;90.27;102139.25;4908244;29;20706;-73
2022/08/25 02:59:05;;;;;;;9.23;6.27;;;;;;;19.53;90.32;102127.09;4925299;29;20910;-73
2022/08/25 03:01:31;;;;;;;9.00;6.20;;;;;;;19.49;90.65;102127.94;4920607;29;20199;-73
2022/08/25 03:03:57;;;;;;;9.00;6.30;;;;;;;19.43;90.53;102128.78;4919309;29;20696;-73
2022/08/25 03:06:23;;;;;;;9.70;6.03;;;;;;;19.41;90.13;102124.44;4916218;29;20190;-73
2022/08/25 03:08:50;;;;;;;9.27;6.30;;;;;;;19.39;89.93;102118.41;4901581;29;20194;-73
2022/08/25 03:11:16;;;;;;;8.00;6.30;;;;;;;19.35;90.19;102122.69;4920119;29;20236;-73
2022/08/25 03:13:42;;;;;;;8.27;5.93;;;;;;;19.29;90.37;102122.66;4919979;29;20294;-73
2022/08/25 03:16:08;;;;;;;9.37;6.27;;;;;;;19.25;90.87;102118.31;4919470;29;20752;-73
2022/08/25 03:18:34;;;;;;;7.10;6.10;;;;;;;19.23;90.95;102114.84;4915996;29;20201;-73
2022/08/25 03:20:59;;;;;;;8.83;6.70;;;;;;;19.23;91.31;102121.78;4916207;29;20574;-73
2022/08/25 03:23:25;;;;;;;7.77;6.60;;;;;;;19.19;91.45;102123.47;4908865;29;20199;-73
2022/08/25 03:28:40;;;;;;;7.43;6.13;;;;;;;19.15;91.57;102126.91;4913815;29;20182;-73
2022/08/25 03:31:07;;;;;;;10.37;6.20;;;;;;;19.19;91.37;102119.97;4917533;29;20576;-73
2022/08/25 03:33:32;;;;;;;7.23;6.20;;;;;;;19.18;91.42;102120.84;4916360;29;20285;-73
2022/08/25 03:35:58;;;;;;;8.57;6.83;;;;;;;19.15;91.55;102118.22;4905179;29;20641;-73
2022/08/25 03:38:25;;;;;;;7.50;6.30;;;;;;;19.17;91.30;102124.31;4917840;29;20197;-73
2022/08/25 03:40:51;;;;;;;9.30;6.27;;;;;;;19.15;91.47;102108.72;4911153;29;20295;-73
2022/08/25 03:43:17;;;;;;;9.10;6.50;;;;;;;19.12;91.78;102111.28;4916905;29;20198;-73
2022/08/25 03:45:44;;;;;;;9.27;6.63;;;;;;;19.09;92.31;102108.69;4917717;29;20207;-73
2022/08/25 03:48:10;;;;;;;8.73;5.83;;;;;;;19.07;92.60;102117.34;4919686;29;20190;-73
2022/08/25 03:50:36;;;;;;;11.93;7.03;;;;;;;19.09;92.26;102113.88;4904115;29;20242;-73
2022/08/25 03:53:02;;;;;;;8.43;6.57;;;;;;;19.04;92.42;102105.22;4903307;29;20289;-73
2022/08/25 03:55:28;;;;;;;6.90;6.23;;;;;;;18.98;92.36;102110.34;4898975;29;20709;-73
2022/08/25 03:57:54;;;;;;;10.23;6.13;;;;;;;19.06;91.84;102097.41;4899524;29;20258;-73
2022/08/25 04:00:21;;;;;;;11.97;6.70;;;;;;;19.06;92.56;102107.78;4920761;29;20237;-73
2022/08/25 04:02:47;;;;;;;10.37;7.13;;;;;;;19.08;92.90;102101.78;4910743;29;20537;-73
2022/08/25 04:05:13;;;;;;;9.23;7.30;;;;;;;19.05;93.08;102099.16;4919158;29;20225;-73
2022/08/25 04:07:39;;;;;;;9.97;7.00;;;;;;;19.02;93.42;102101.72;4916734;29;20278;-73
2022/08/25 04:10:07;;;;;;;9.20;6.57;;;;;;;19.00;93.31;102105.16;4916835;29;20720;-74
2022/08/25 04:12:33;;;;;;;9.10;6.30;;;;;;;18.93;92.87;102106.00;4917287;29;20194;-73
2022/08/25 04:15:00;;;;;;;9.03;6.90;;;;;;;18.90;92.82;102113.78;4922814;29;20296;-73
2022/08/25 04:17:25;;;;;;;9.30;7.33;;;;;;;18.83;92.72;102102.47;4922373;29;20241;-73
2022/08/25 04:19:51;;;;;;;10.37;7.27;;;;;;;18.81;93.05;102108.53;4914477;29;20226;-73
2022/08/25 04:22:16;;;;;;;8.77;7.20;;;;;;;18.78;92.75;102111.97;4914755;29;20564;-73
2022/08/25 04:24:42;;;;;;;10.47;7.30;;;;;;;18.76;92.69;102105.03;4916060;29;20238;-73
2022/08/25 04:27:07;;;;;;;11.27;7.50;;;;;;;18.75;92.65;102101.56;4925974;29;20289;-73
2022/08/25 04:29:33;;;;;;;9.00;7.23;;;;;;;18.78;92.49;102111.09;4918886;29;20250;-73
2022/08/25 04:31:59;;;;;;;11.50;8.13;;;;;;;18.73;93.15;102110.19;4918608;29;20274;-73
2022/08/25 04:34:25;;;;;;;8.57;7.67;;;;;;;18.72;92.98;102113.66;4915491;29;20238;-73
2022/08/25 04:36:52;;;;;;;9.93;7.60;;;;;;;18.78;92.76;102121.47;4920504;29;20214;-73
2022/08/25 04:39:20;;;;;;;12.20;8.23;;;;;;;18.73;92.68;102113.66;4925036;29;20241;-74
2022/08/25 04:41:49;;;;;;;10.73;7.90;;;;;;;18.70;93.25;102121.44;4924181;29;20195;-74
2022/08/25 04:44:16;;;;;;;13.37;8.10;;;;;;;18.68;93.48;102128.34;4917416;29;20218;-73
2022/08/25 04:46:41;;;;;;;13.57;8.43;;;;;;;18.65;93.13;102130.91;4919758;29;20575;-73
2022/08/25 04:49:07;;;;;;;10.03;8.63;;;;;;;18.67;93.20;102124.03;4920373;29;20201;-75
2022/08/25 04:51:39;;;;;;;12.07;8.47;;;;;;;18.68;93.29;102128.34;4918824;29;20194;-73
2022/08/25 04:54:08;;;;;;;13.27;9.23;;;;;;;18.69;93.05;102126.59;4907026;29;20210;-73
2022/08/25 04:56:34;;;;;;;15.83;10.47;;;;;;;18.66;93.51;102121.41;4920884;29;20301;-72
2022/08/25 04:59:11;;;;;;;12.13;10.70;;;;;;;18.65;94.02;102130.91;4920132;29;20298;-73
2022/08/25 05:01:38;;;;;;;15.93;12.13;;;;;;;18.65;93.81;102124.88;4919781;29;20680;-74
2022/08/25 05:04:06;;;;;;;14.27;12.47;;;;;;;18.64;93.82;102117.91;4925597;29;20228;-75
2022/08/25 05:06:32;;;;;;;13.97;11.77;;;;;;;18.61;94.30;102117.91;4922550;29;20353;-73
2022/08/25 05:08:58;;;;;;;15.10;12.90;;;;;;;18.67;93.83;102118.81;4918010;29;20815;-72
2022/08/25 05:11:24;;;;;;;18.47;14.17;;;;;;;18.70;94.21;102117.97;4917995;29;20198;-72
2022/08/25 05:13:52;;;;;;;16.80;13.67;;;;;;;18.71;94.63;102119.72;4920448;29;20570;-73
2022/08/25 05:16:19;;;;;;;17.20;14.20;;;;;;;18.76;94.32;102123.19;4912263;29;20221;-73
2022/08/25 05:18:45;;;;;;;18.07;13.57;;;;;;;18.79;94.39;102123.22;4923981;29;20998;-73
2022/08/25 05:21:13;;;;;;;16.07;13.23;;;;;;;18.82;94.29;102125.81;4918855;29;20190;-73
2022/08/25 05:23:40;;;;;;;19.43;14.23;;;;;;;18.87;94.45;102124.13;4902776;29;20249;-74
2022/08/25 05:26:12;;;;;;;18.27;14.40;;;;;;;18.86;94.52;102117.19;4920233;29;20190;-74
2022/08/25 05:28:40;;;;;;;16.87;14.07;;;;;;;18.90;94.41;102114.66;4923068;29;20206;-72
2022/08/25 05:31:09;;;;;;;16.07;14.13;;;;;;;18.92;94.28;102119.81;4909588;29;20186;-72
2022/08/25 05:33:36;;;;;;;16.17;13.43;;;;;;;18.95;94.59;102114.66;4909842;29;20187;-73
2022/08/25 05:36:02;;;;;;;16.33;13.67;;;;;;;18.93;94.55;102114.66;4911225;29;20217;-72
2022/08/25 05:38:28;;;;;;;15.40;13.80;;;;;;;18.94;94.47;102119.00;4918956;29;20602;-73
2022/08/25 05:40:58;;;;;;;16.37;13.57;;;;;;;19.02;94.51;102126.84;4920773;29;20194;-73
2022/08/25 05:43:24;;;;;;;14.00;12.50;;;;;;;19.06;94.21;102123.38;4924441;29;20194;-74
2022/08/25 05:45:53;;;;;;;14.83;12.77;;;;;;;19.02;94.59;102129.44;4922649;29;20237;-72
2022/08/25 05:48:18;;;;;;;14.90;12.50;;;;;;;19.04;94.48;102125.09;4918114;29;20666;-72
2022/08/25 05:50:53;;;;;;;15.57;12.50;;;;;;;19.09;93.88;102126.00;4919578;29;20191;-72
2022/08/25 05:53:20;;;;;;;14.23;12.77;;;;;;;19.10;94.13;102139.00;4918742;29;20192;-74
2022/08/25 05:55:46;;;;;;;15.20;12.77;;;;;;;19.13;93.94;102126.03;4924549;29;20305;-74
2022/08/25 05:58:11;;;;;;;14.97;12.87;;;;;;;19.18;94.04;102131.25;4923104;29;20700;-74
2022/08/25 06:00:38;;;;;;;13.10;11.70;;;;;;;19.21;93.80;102129.50;4918649;29;20191;-74
2022/08/25 06:03:03;;;;;;;15.10;13.40;;;;;;;19.23;94.15;102121.78;4919495;29;20273;-74
2022/08/25 06:05:31;;;;;;;16.17;13.57;;;;;;;19.30;93.87;102126.16;4917411;29;20312;-73
2022/08/25 06:07:57;;;;;;;16.80;13.97;;;;;;;19.34;93.88;102122.69;4926055;29;20197;-73
2022/08/25 06:10:22;;;;;;;16.17;12.87;;;;;;;19.37;93.24;102120.09;4922909;29;20594;-73
2022/08/25 06:12:48;;;;;;;16.77;13.07;;;;;;;19.45;93.25;102127.09;4921825;29;20206;-73
2022/08/25 06:15:20;;;;;;;19.13;13.23;;;;;;;19.44;93.48;102119.28;4918058;29;20210;-73
2022/08/25 06:17:47;;;;;;;16.80;13.13;;;;;;;19.46;93.55;102123.63;4919463;29;20249;-73
2022/08/25 06:20:22;;;;;;;16.17;14.07;;;;;;;19.51;93.22;102121.00;4904720;29;20205;-75
2022/08/25 06:22:49;;;;;;;16.43;13.37;;;;;;;19.61;92.77;102115.84;4916358;29;20194;-75
2022/08/25 06:25:17;;;;;;;16.80;13.53;;;;;;;19.66;92.25;102110.69;4902994;29;20293;-75
2022/08/25 06:27:44;;;;;;;17.27;13.97;;;;;;;19.66;92.35;102108.09;4920107;29;20194;-75
2022/08/25 06:30:14;;;;;;;15.20;13.60;;;;;;;19.75;91.67;102100.28;4906776;29;20198;-75
2022/08/25 06:32:41;;;;;;;16.40;13.50;;;;;;;19.88;90.98;102107.25;4925151;29;20201;-75
2022/08/25 06:35:10;;;;;;;16.83;13.13;;;;;;;19.93;91.17;102101.19;4921261;29;20261;-72
2022/08/25 06:37:36;;;;;;;19.33;13.63;;;;;;;19.95;91.33;102106.41;4918048;29;20219;-74
2022/08/25 06:40:03;;;;;;;18.50;13.97;;;;;;;19.95;91.22;102099.44;4919086;29;20186;-74
2022/08/25 06:42:29;;;;;;;18.00;14.63;;;;;;;19.96;91.45;102100.34;4918151;29;20284;-72
2022/08/25 06:44:54;;;;;;;19.40;13.37;;;;;;;19.95;91.22;102096.84;4919580;29;20297;-72
2022/08/25 06:47:20;;;;;;;17.50;14.77;;;;;;;19.96;91.04;102098.63;4923415;29;20665;-73
2022/08/25 06:49:46;;;;;;;16.77;14.27;;;;;;;19.98;91.46;102103.78;4918412;29;20646;-72
2022/08/25 06:52:12;;;;;;;17.13;15.33;;;;;;;19.91;92.14;102109.88;4918078;29;20285;-72
2022/08/25 06:54:39;;;;;;;16.27;14.10;;;;;;;20.03;91.24;102112.50;4917831;29;20852;-73
2022/08/25 06:57:05;;;;;;;18.00;15.77;;;;;;;20.01;91.17;102112.50;4925231;29;20202;-74
2022/08/25 06:59:32;;;;;;;18.57;14.33;;;;;;;20.17;90.08;102109.06;4904321;29;20194;-73
2022/08/25 07:01:58;;;;;;;16.90;14.23;;;;;;;20.24;90.01;102107.31;4920883;29;20198;-73
2022/08/25 07:04:23;;;;;;;18.27;14.57;;;;;;;20.33;89.98;102107.31;4901478;29;20320;-73
2022/08/25 07:06:49;;;;;;;16.67;14.97;;;;;;;20.35;90.25;102114.25;4919017;29;20270;-72
2022/08/25 07:09:15;;;;;;;15.50;13.90;;;;;;;20.31;89.87;102115.13;4919943;29;20189;-73
2022/08/25 07:11:42;;;;;;;18.93;13.37;;;;;;;20.30;89.83;102115.13;4922359;29;20202;-72
2022/08/25 07:14:10;;;;;;;16.20;14.33;;;;;;;20.36;89.25;102122.94;4920476;29;20224;-72
2022/08/25 07:16:36;;;;;;;16.60;14.80;;;;;;;20.30;89.76;102126.41;4905821;29;20703;-74
2022/08/25 07:19:03;;;;;;;16.93;15.20;;;;;;;20.30;89.62;102120.31;4918079;29;20284;-73
2022/08/25 07:21:31;;;;;;;18.73;15.97;;;;;;;20.33;89.42;102115.13;4914166;29;20678;-74
2022/08/25 07:23:58;;;;;;;17.73;15.73;;;;;;;20.39;89.39;102126.41;4920535;29;20268;-73
2022/08/25 07:26:28;;;;;;;16.67;14.97;;;;;;;20.41;89.12;102114.25;4920023;29;20201;-73
2022/08/25 07:28:55;;;;;;;18.20;16.27;;;;;;;20.37;89.47;102115.16;4918009;29;20194;-73
2022/08/25 07:31:20;;;;;;;16.73;15.10;;;;;;;20.43;89.62;102120.34;4916682;29;20202;-73
2022/08/25 07:36:30;;;;;;;17.87;15.97;;;;;;;20.35;89.29;102116.88;4917772;29;20281;-73
2022/08/25 07:39:04;;;;;;;16.43;14.63;;;;;;;20.44;89.23;102122.06;4919607;29;20297;-74
2022/08/25 07:41:30;;;;;;;18.03;16.13;;;;;;;20.38;89.05;102113.41;4913075;29;20201;-73
2022/08/25 07:43:55;;;;;;;17.83;15.80;;;;;;;20.49;89.57;102107.31;4913987;29;20313;-74
2022/08/25 07:46:21;;;;;;;20.63;15.47;;;;;;;20.67;88.60;102114.22;4907821;29;20190;-73
2022/08/25 07:48:46;;;;;;;20.50;15.20;;;;;;;20.75;87.88;102115.09;4922778;29;20191;-72
2022/08/25 07:51:14;;;;;;;17.70;15.83;;;;;;;20.85;87.98;102114.19;4889784;29;20296;-73
2022/08/25 07:53:40;;;;;;;17.70;15.80;;;;;;;20.73;88.48;102122.91;4916867;29;20194;-73
2022/08/25 07:56:11;;;;;;;16.90;15.00;;;;;;;20.83;87.42;102114.19;4904837;29;20286;-73
2022/08/25 07:58:38;;;;;;;19.07;17.03;;;;;;;20.86;87.54;102116.81;4915014;29;20300;-72
2022/08/25 08:01:04;;;;;;;18.80;16.23;;;;;;;20.95;87.04;102115.94;4924024;29;20194;-73
2022/08/25 08:03:30;;;;;;;21.33;16.93;;;;;;;21.04;87.83;102115.91;4894205;28;20613;-73
2022/08/25 08:05:56;;;;;;;20.00;16.87;;;;;;;20.91;87.35;102109.88;4918562;29;20244;-72
2022/08/25 08:08:22;;;;;;;23.43;16.60;;;;;;;21.01;87.15;102110.75;4915301;29;20187;-74
2022/08/25 08:10:47;;;;;;;20.90;17.77;;;;;;;21.02;86.99;102109.84;4918625;29;20692;-74
2022/08/25 08:13:13;;;;;;;20.27;17.63;;;;;;;21.01;87.02;102111.59;4918747;29;20198;-73
2022/08/25 08:15:42;;;;;;;21.93;18.67;;;;;;;20.94;87.36;102104.69;4925645;29;20225;-73
2022/08/25 08:18:08;;;;;;;22.10;16.70;;;;;;;20.93;87.36;102115.97;4922796;29;20200;-73
2022/08/25 08:20:34;;;;;;;22.00;16.17;;;;;;;21.00;87.38;102104.66;4920193;29;20214;-72
2022/08/25 08:23:00;;;;;;;19.67;16.70;;;;;;;21.07;86.78;102106.38;4922036;29;20712;-73
2022/08/25 08:25:25;;;;;;;19.47;17.40;;;;;;;21.05;86.69;102107.25;4926450;29;20210;-72
2022/08/25 08:27:51;;;;;;;21.57;17.60;;;;;;;21.17;86.35;102115.00;4924517;29;20202;-73
2022/08/25 08:30:16;;;;;;;19.83;16.87;;;;;;;21.24;86.58;102117.59;4922356;29;20194;-73
2022/08/25 08:32:42;;;;;;;19.73;16.97;;;;;;;21.22;86.51;102110.66;4918271;29;20311;-73
2022/08/25 08:35:08;;;;;;;20.00;17.20;;;;;;;21.26;86.01;102107.16;4918901;29;20393;-74
2022/08/25 08:37:33;;;;;;;18.80;16.87;;;;;;;21.26;85.40;102105.44;4922995;29;20690;-72
2022/08/25 08:40:00;;;;;;;21.27;17.93;;;;;;;21.32;85.76;102108.00;4918928;29;20285;-73
2022/08/25 08:42:38;;;;;;;18.77;16.33;;;;;;;21.39;85.36;102111.47;4920444;29;20200;-73
2022/08/25 08:45:26;;;;;;;18.13;16.17;;;;;;;21.62;84.75;102101.78;4920031;29;20213;-73
2022/08/25 08:48:07;;;;;;;17.10;15.40;;;;;;;21.84;84.30;102101.66;4917750;29;20202;-72
2022/08/25 08:50:41;;;;;;;17.90;16.00;;;;;;;21.89;83.06;102099.88;4922262;29;20198;-73
2022/08/25 08:53:21;;;;;;;21.00;15.10;;;;;;;22.17;82.81;102100.56;4901482;29;20199;-73
2022/08/25 08:56:03;;;;;;;18.70;16.13;;;;;;;22.09;81.91;102105.84;4919518;29;20232;-73
2022/08/25 08:58:32;;;;;;;21.40;16.50;;;;;;;22.26;82.02;102101.34;4918968;29;20190;-73
2022/08/25 09:00:58;;;;;;;17.87;15.20;;;;;;;22.30;80.79;102100.44;4916223;29;20241;-73
2022/08/25 09:03:26;;;;;;;18.67;15.97;;;;;;;22.49;80.54;102098.59;4926552;29;20201;-73
2022/08/25 09:05:55;;;;;;;14.97;13.37;;;;;;;22.73;79.61;102092.22;4899451;29;20301;-74
2022/08/25 09:08:21;;;;;;;15.90;13.73;;;;;;;23.29;77.44;102090.75;4920674;29;20216;-74
2022/08/25 09:11:07;;;;;;;14.10;12.70;;;;;;;24.32;72.70;102082.25;4902371;29;20674;-74
2022/08/25 09:14:06;;;;;;;13.83;9.60;;;;;;;25.00;69.74;102080.09;4917232;29;20196;-73
2022/08/25 09:16:53;;;;;;;12.40;10.00;;;;;;;25.37;68.49;102073.22;4906232;29;20218;-73
2022/08/25 09:19:30;;;;;;;11.07;9.98;;;;;;;25.46;67.09;102070.41;4918842;29;20188;-76
2022/08/25 09:22:07;;;;;;;13.57;9.95;;;;;;;25.09;67.83;102073.81;4921132;29;20232;-74
2022/08/25 09:25:17;;;;;;;11.05;10.00;;;;;;;25.45;66.43;102063.44;4915428;29;20228;-73
2022/08/25 09:28:07;;;;;;;11.38;9.73;;;;;;;25.98;65.40;102057.84;4909972;29;20217;-72
2022/08/25 09:31:03;;;;;;;13.93;10.48;;;;;;;26.10;65.43;102051.44;4920495;29;20281;-75
2022/08/25 09:33:31;;;;;;;9.85;8.88;;;;;;;26.60;64.36;102043.97;4923278;29;20202;-76
2022/08/25 09:35:57;;;;;;;10.65;9.65;;;;;;;26.94;63.11;102041.28;4904785;29;20684;-76
2022/08/25 09:38:25;;;;;;;9.98;8.98;;;;;;;27.09;61.62;102028.53;4902125;29;20195;-75
2022/08/25 09:40:54;;;;;;;13.73;9.88;;;;;;;27.02;61.47;102026.97;4901901;29;20213;-76
2022/08/25 09:43:26;;;;;;;12.45;9.52;;;;;;;27.31;60.59;102028.78;4927254;29;20656;-76
2022/08/25 09:46:12;;;;;;;10.25;9.25;;;;;;;27.55;59.53;102026.25;4911440;29;20686;-76
2022/08/25 09:48:40;;;;;;;10.02;9.07;;;;;;;27.34;60.43;102028.66;4916633;29;20198;-75
2022/08/25 09:51:17;;;;;;;10.27;9.27;;;;;;;27.24;59.92;102028.09;4919547;29;20197;-76
2022/08/25 09:53:58;;;;;;;11.75;9.25;;;;;;;27.29;60.48;102018.28;4892069;29;20201;-75
2022/08/25 09:56:27;;;;;;;14.45;8.93;;;;;;;27.79;59.12;102011.41;4913793;29;20214;-76
2022/08/25 09:58:54;;;;;;;11.68;9.82;;;;;;;27.57;58.56;102011.25;4901414;29;20693;-75
2022/08/25 10:01:21;;;;;;;9.38;8.55;;;;;;;27.57;58.75;102018.28;4927357;29;20193;-76
2022/08/25 10:04:02;;;;;;;8.77;7.85;;;;;;;28.52;56.96;102001.00;4924117;29;20194;-75
2022/08/25 10:06:45;;;;;;;12.43;7.00;;;;;;;28.98;54.53;102002.84;4915704;29;20570;-76
2022/08/25 10:09:25;;;;;;;9.98;7.32;;;;;;;29.20;53.70;101987.91;4924253;29;20282;-77
2022/08/25 10:11:51;;;;;;;10.20;7.60;;;;;;;28.41;54.59;101995.25;4917626;29;20560;-76
2022/08/25 10:14:39;;;;;;;8.38;7.20;;;;;;;29.03;53.89;101983.28;4917556;29;20289;-76
2022/08/25 10:17:23;;;;;;;11.57;6.60;;;;;;;28.91;53.44;101990.75;4925624;29;20220;-76
2022/08/25 10:20:09;;;;;;;7.25;6.32;;;;;;;29.40;52.50;101980.03;4921645;29;20662;-78
2022/08/25 10:22:36;;;;;;;7.22;6.30;;;;;;;29.10;52.02;101978.63;4911771;29;20195;-75
2022/08/25 10:25:05;;;;;;;6.70;5.90;;;;;;;29.29;52.77;101988.38;4887742;29;20246;-78
2022/08/25 10:27:53;;;;;;;10.63;6.82;;;;;;;29.65;51.18;101978.13;4920696;29;20183;-75
2022/08/25 10:30:22;;;;;;;8.70;5.97;;;;;;;29.44;52.70;101977.22;4916578;29;20178;-75
2022/08/25 10:32:51;;;;;;;7.80;6.22;;;;;;;29.82;50.94;101967.75;4928542;29;20196;-77
2022/08/25 10:35:21;;;;;;;8.95;6.18;;;;;;;30.38;50.19;101967.97;4913451;29;20229;-77
2022/08/25 10:38:04;;;;;;;10.73;6.75;;;;;;;29.71;50.88;101970.81;4922644;29;20235;-75
2022/08/25 10:40:52;;;;;;;9.60;5.43;;;;;;;30.10;50.30;101963.00;4909672;29;20591;-74
2022/08/25 10:43:33;;;;;;;8.57;5.88;;;;;;;30.04;50.27;101950.06;4920441;29;20270;-77
2022/08/25 10:46:04;;;;;;;7.30;5.53;;;;;;;29.69;50.11;101946.25;4899592;29;20593;-78
2022/08/25 10:48:53;;;;;;;6.03;5.47;;;;;;;30.57;49.71;101931.84;4922844;29;20712;-77
2022/08/25 10:51:54;;;;;;;9.43;6.70;;;;;;;30.13;50.03;101936.47;4901084;29;20701;-77
2022/08/25 10:54:36;;;;;;;8.30;5.75;;;;;;;30.96;48.27;101937.94;4901405;29;20233;-75
2022/08/25 10:57:04;;;;;;;5.97;5.38;;;;;;;31.14;46.51;101932.63;4915773;29;20237;-77
2022/08/25 10:59:39;;;;;;;8.00;4.78;;;;;;;31.53;45.82;101924.56;4895871;29;20187;-77
2022/08/25 11:02:20;;;;;;;6.32;5.00;;;;;;;32.02;44.74;101926.44;4916405;29;20573;-75
2022/08/25 11:04:58;;;;;;;6.40;4.93;;;;;;;31.76;46.01;101921.63;4928818;29;20268;-77
2022/08/25 11:07:33;;;;;;;5.40;4.60;;;;;;;32.23;45.40;101914.72;4911392;29;20220;-75
2022/08/25 11:10:05;;;;;;;6.60;5.40;;;;;;;32.11;43.49;101908.25;4927925;29;20186;-78
2022/08/25 11:12:44;;;;;;;8.77;5.38;;;;;;;32.44;43.93;101889.69;4910924;29;20189;-78
2022/08/25 11:15:16;;;;;;;7.20;5.30;;;;;;;32.23;44.66;101899.63;4922970;29;20212;-77
2022/08/25 11:18:01;;;;;;;8.23;6.00;;;;;;;32.70;46.05;101889.13;4927208;29;20241;-77
2022/08/25 11:20:35;;;;;;;5.50;4.90;;;;;;;31.79;44.33;101889.66;4914300;29;20193;-77
2022/08/25 11:23:07;;;;;;;5.97;5.18;;;;;;;32.18;43.74;101887.56;4921736;29;20359;-77
2022/08/25 11:25:44;;;;;;;5.50;4.95;;;;;;;32.51;43.21;101885.78;4931383;29;20700;-76
2022/08/25 11:28:17;;;;;;;8.57;5.13;;;;;;;32.51;43.06;101883.97;4915893;29;20681;-77
2022/08/25 11:30:43;;;;;;;8.73;5.03;;;;;;;32.55;41.31;101882.84;4918056;29;20388;-77
2022/08/25 11:33:15;;;;;;;5.75;4.90;;;;;;;32.80;41.22;101880.59;4924478;29;20244;-77